createdAt,value
2019-04-03T00:00:31.088Z,0
2019-04-03T00:01:31.202Z,0
2019-04-03T00:02:31.071Z,0
2019-04-03T00:03:31.057Z,0
2019-04-03T00:04:31.092Z,0
2019-04-03T00:05:31.071Z,0
2019-04-03T00:06:30.946Z,0
2019-04-03T00:07:30.912Z,0
2019-04-03T00:08:30.890Z,0
2019-04-03T00:09:30.888Z,0
2019-04-03T00:10:30.900Z,0
2019-04-03T00:11:30.990Z,0
2019-04-03T00:12:30.918Z,0
2019-04-03T00:13:30.826Z,0
2019-04-03T00:14:30.755Z,0
2019-04-03T00:15:30.802Z,0
2019-04-03T00:16:30.830Z,0
2019-04-03T00:17:30.677Z,0
2019-04-03T00:18:30.992Z,0
2019-04-03T00:19:30.671Z,0
2019-04-03T00:20:30.642Z,0
2019-04-03T00:21:30.589Z,0
2019-04-03T00:22:31.606Z,0
2019-04-03T00:23:32.183Z,0
2019-04-03T00:24:32.063Z,0
2019-04-03T00:25:32.106Z,0
2019-04-03T00:26:35.338Z,0
2019-04-03T00:27:31.962Z,0
2019-04-03T00:28:32.141Z,0
2019-04-03T00:29:32.218Z,0
2019-04-03T00:30:31.874Z,0
2019-04-03T00:31:32.478Z,0
2019-04-03T00:32:32.695Z,0
2019-04-03T00:33:32.647Z,0
2019-04-03T00:34:32.722Z,0
2019-04-03T00:35:32.728Z,0
2019-04-03T00:36:32.456Z,0
2019-04-03T00:37:32.386Z,0
2019-04-03T00:38:31.407Z,0
2019-04-03T00:39:31.944Z,0
2019-04-03T00:40:31.948Z,0
2019-04-03T00:41:31.856Z,0
2019-04-03T00:42:32.012Z,0
2019-04-03T00:43:32.080Z,0
2019-04-03T00:44:31.712Z,0
2019-04-03T00:45:31.698Z,0
2019-04-03T00:46:32.107Z,0
2019-04-03T00:47:32.555Z,0
2019-04-03T00:48:32.153Z,0
2019-04-03T00:49:33.002Z,0
2019-04-03T00:50:31.696Z,0
2019-04-03T00:51:31.904Z,0
2019-04-03T00:52:32.189Z,0
2019-04-03T00:53:32.140Z,0
2019-04-03T00:54:33.512Z,0
2019-04-03T00:55:31.618Z,0
2019-04-03T00:56:31.437Z,0
2019-04-03T00:57:31.664Z,0
2019-04-03T00:58:30.637Z,0
2019-04-03T00:59:31.074Z,0
2019-04-03T01:00:31.270Z,0
2019-04-03T01:01:31.643Z,0
2019-04-03T01:02:30.865Z,0
2019-04-03T01:03:31.004Z,0
2019-04-03T01:04:31.318Z,0
2019-04-03T01:05:31.257Z,0
2019-04-03T01:06:31.240Z,0
2019-04-03T01:07:31.378Z,0
2019-04-03T01:08:31.495Z,0
2019-04-03T01:09:31.816Z,0
2019-04-03T01:10:31.698Z,0
2019-04-03T01:11:30.512Z,0
2019-04-03T01:12:31.200Z,0
2019-04-03T01:13:29.710Z,0
2019-04-03T01:14:31.225Z,0
2019-04-03T01:15:29.770Z,0
2019-04-03T01:16:29.264Z,0
2019-04-03T01:17:29.295Z,0
2019-04-03T01:18:29.266Z,0
2019-04-03T01:19:28.917Z,0
2019-04-03T01:20:29.304Z,0
2019-04-03T01:21:29.212Z,0
2019-04-03T01:22:28.872Z,0
2019-04-03T01:23:29.044Z,0
2019-04-03T01:24:29.244Z,0
2019-04-03T01:25:29.002Z,0
2019-04-03T01:26:29.073Z,0
2019-04-03T01:27:29.078Z,0
2019-04-03T01:28:28.929Z,0
2019-04-03T01:29:28.900Z,0
2019-04-03T01:30:28.889Z,0
2019-04-03T01:31:28.850Z,0
2019-04-03T01:32:28.822Z,0
2019-04-03T01:33:28.980Z,0
2019-04-03T01:34:28.960Z,0
2019-04-03T01:35:28.747Z,0
2019-04-03T01:36:28.485Z,0
2019-04-03T01:37:28.872Z,0
2019-04-03T01:38:29.384Z,0
2019-04-03T01:39:30.644Z,0
2019-04-03T01:40:30.334Z,0
2019-04-03T01:41:30.866Z,0
2019-04-03T01:42:31.129Z,0
2019-04-03T01:43:30.281Z,0
2019-04-03T01:44:31.381Z,0
2019-04-03T01:45:30.883Z,0
2019-04-03T01:46:30.378Z,0
2019-04-03T01:47:30.450Z,0
2019-04-03T01:48:30.583Z,0
2019-04-03T01:49:30.680Z,0
2019-04-03T01:50:30.862Z,0
2019-04-03T01:51:29.668Z,0
2019-04-03T01:52:28.209Z,0
2019-04-03T01:53:28.297Z,0
2019-04-03T01:54:28.457Z,0
2019-04-03T01:55:28.260Z,0
2019-04-03T01:56:28.330Z,0
2019-04-03T01:57:28.319Z,0
2019-04-03T01:58:28.277Z,0
2019-04-03T01:59:28.171Z,0
2019-04-03T02:00:28.239Z,0
2019-04-03T02:01:28.140Z,0
2019-04-03T02:02:28.086Z,0
2019-04-03T02:03:28.060Z,0
2019-04-03T02:04:28.089Z,0
2019-04-03T02:05:28.001Z,0
2019-04-03T02:06:28.207Z,0
2019-04-03T02:07:27.947Z,0
2019-04-03T02:08:28.051Z,0
2019-04-03T02:09:28.077Z,0
2019-04-03T02:10:28.252Z,0
2019-04-03T02:11:29.342Z,0
2019-04-03T02:12:29.342Z,0
2019-04-03T02:13:31.389Z,0
2019-04-03T02:14:30.703Z,0
2019-04-03T02:15:30.786Z,0
2019-04-03T02:16:29.819Z,0
2019-04-03T02:17:30.393Z,0
2019-04-03T02:18:29.611Z,0
2019-04-03T02:19:30.620Z,0
2019-04-03T02:20:29.416Z,0
2019-04-03T02:21:29.902Z,0
2019-04-03T02:22:29.271Z,0
2019-04-03T02:23:28.898Z,0
2019-04-03T02:24:27.513Z,0
2019-04-03T02:25:27.557Z,0
2019-04-03T02:26:27.602Z,0
2019-04-03T02:27:27.450Z,0
2019-04-03T02:28:27.435Z,0
2019-04-03T02:29:27.436Z,0
2019-04-03T02:30:27.669Z,0
2019-04-03T02:31:29.694Z,0
2019-04-03T02:32:30.696Z,0
2019-04-03T02:33:31.009Z,0
2019-04-03T02:34:27.275Z,0
2019-04-03T02:35:27.622Z,0
2019-04-03T02:36:27.551Z,0
2019-04-03T02:37:27.646Z,0
2019-04-03T02:38:31.211Z,0
2019-04-03T02:39:31.323Z,0
2019-04-03T02:40:31.182Z,0
2019-04-03T02:41:27.154Z,0
2019-04-03T02:42:27.371Z,0
2019-04-03T02:43:27.097Z,0
2019-04-03T02:44:29.254Z,0
2019-04-03T02:45:30.184Z,0
2019-04-03T02:46:30.097Z,0
2019-04-03T02:47:27.375Z,0
2019-04-03T02:48:27.174Z,0
2019-04-03T02:49:26.911Z,0
2019-04-03T02:50:27.082Z,0
2019-04-03T02:51:29.642Z,0
2019-04-03T02:52:30.081Z,0
2019-04-03T02:53:27.424Z,0
2019-04-03T02:54:26.816Z,0
2019-04-03T02:55:27.098Z,0
2019-04-03T02:56:27.008Z,0
2019-04-03T02:57:27.879Z,0
2019-04-03T02:58:31.708Z,0
2019-04-03T02:59:30.238Z,0
2019-04-03T03:00:26.701Z,0
2019-04-03T03:01:26.861Z,0
2019-04-03T03:02:26.755Z,0
2019-04-03T03:03:28.193Z,0
2019-04-03T03:04:30.207Z,0
2019-04-03T03:05:29.687Z,0
2019-04-03T03:06:26.855Z,0
2019-04-03T03:07:26.646Z,0
2019-04-03T03:08:30.306Z,0
2019-04-03T03:09:26.590Z,0
2019-04-03T03:10:34.092Z,0
2019-04-03T03:11:30.859Z,0
2019-04-03T03:12:29.851Z,0
2019-04-03T03:13:26.284Z,0
2019-04-03T03:14:26.593Z,0
2019-04-03T03:15:26.016Z,0
2019-04-03T03:16:28.374Z,0
2019-04-03T03:17:29.910Z,0
2019-04-03T03:18:29.106Z,0
2019-04-03T03:19:26.678Z,0
2019-04-03T03:20:26.110Z,0
2019-04-03T03:21:26.329Z,0
2019-04-03T03:22:28.240Z,0
2019-04-03T03:23:29.608Z,0
2019-04-03T03:24:28.276Z,0
2019-04-03T03:25:26.237Z,0
2019-04-03T03:26:25.965Z,0
2019-04-03T03:27:26.169Z,0
2019-04-03T03:28:25.684Z,0
2019-04-03T03:29:34.610Z,0
2019-04-03T03:31:10.655Z,0
2019-04-03T03:32:19.633Z,0
2019-04-03T03:32:44.993Z,0
2019-04-03T03:33:47.704Z,0
2019-04-03T03:35:32.301Z,0
2019-04-03T03:35:57.973Z,0
2019-04-03T03:36:50.763Z,0
2019-04-03T03:37:48.491Z,0
2019-04-03T03:38:50.283Z,0
2019-04-03T03:39:52.367Z,0
2019-04-03T03:40:52.213Z,0
2019-04-03T03:41:48.396Z,0
2019-04-03T03:42:48.604Z,0
2019-04-03T03:43:48.775Z,0
2019-04-03T03:44:54.509Z,0
2019-04-03T03:45:51.346Z,0
2019-04-03T03:46:47.965Z,0
2019-04-03T03:47:48.274Z,0
2019-04-03T03:48:53.008Z,0
2019-04-03T03:49:51.200Z,0
2019-04-03T03:50:48.350Z,0
2019-04-03T03:51:48.280Z,0
2019-04-03T03:52:48.894Z,0
2019-04-03T03:53:52.050Z,0
2019-04-03T03:54:52.660Z,0
2019-04-03T03:55:48.330Z,0
2019-04-03T03:56:47.500Z,0
2019-04-03T03:57:49.752Z,0
2019-04-03T03:58:52.111Z,0
2019-04-03T03:59:52.776Z,0
2019-04-03T04:00:57.736Z,0
2019-04-03T04:01:47.489Z,0
2019-04-03T04:02:52.259Z,0
2019-04-03T04:03:51.524Z,0
2019-04-03T04:04:52.413Z,0
2019-04-03T04:05:48.689Z,0
2019-04-03T04:06:47.672Z,0
2019-04-03T04:07:48.204Z,0
2019-04-03T04:08:51.501Z,0
2019-04-03T04:09:52.772Z,0
2019-04-03T04:10:47.409Z,0
2019-04-03T04:11:47.891Z,0
2019-04-03T04:12:51.091Z,0
2019-04-03T04:13:51.114Z,0
2019-04-03T04:14:47.858Z,0
2019-04-03T04:15:47.448Z,0
2019-04-03T04:16:47.881Z,0
2019-04-03T04:17:51.931Z,0
2019-04-03T04:18:47.745Z,0
2019-04-03T04:19:47.302Z,0
2019-04-03T04:20:48.336Z,0
2019-04-03T04:21:50.612Z,0
2019-04-03T04:22:51.672Z,0
2019-04-03T04:23:46.806Z,0
2019-04-03T04:24:47.142Z,0
2019-04-03T04:25:50.445Z,0
2019-04-03T04:26:49.759Z,0
2019-04-03T04:27:48.496Z,0
2019-04-03T04:28:49.094Z,0
2019-04-03T04:29:49.153Z,0
2019-04-03T04:30:49.464Z,0
2019-04-03T04:31:49.216Z,0
2019-04-03T04:32:49.327Z,0
2019-04-03T04:33:49.650Z,0
2019-04-03T04:34:49.166Z,0
2019-04-03T04:35:46.791Z,0
2019-04-03T04:36:46.950Z,0
2019-04-03T04:37:49.723Z,0
2019-04-03T04:38:46.825Z,0
2019-04-03T04:39:46.802Z,0
2019-04-03T04:40:46.563Z,0
2019-04-03T04:41:47.256Z,0
2019-04-03T04:42:46.746Z,0
2019-04-03T04:43:48.821Z,0
2019-04-03T04:44:48.322Z,0
2019-04-03T04:45:49.752Z,0
2019-04-03T04:46:48.839Z,0
2019-04-03T04:47:49.004Z,0
2019-04-03T04:48:46.308Z,0
2019-04-03T04:49:46.342Z,0
2019-04-03T04:50:46.664Z,0
2019-04-03T04:51:46.122Z,0
2019-04-03T04:52:46.258Z,0
2019-04-03T04:53:46.287Z,0
2019-04-03T04:54:47.649Z,0
2019-04-03T04:55:46.381Z,0
2019-04-03T04:56:47.818Z,0
2019-04-03T04:57:48.287Z,0
2019-04-03T04:58:48.282Z,0
2019-04-03T04:59:49.197Z,0
2019-04-03T05:00:48.955Z,0
2019-04-03T05:01:46.993Z,0
2019-04-03T05:02:46.092Z,0
2019-04-03T05:03:45.981Z,0
2019-04-03T05:04:46.237Z,0
2019-04-03T05:05:46.068Z,0
2019-04-03T05:06:45.930Z,5
2019-04-03T05:07:46.026Z,5
2019-04-03T05:08:46.205Z,5
2019-04-03T05:09:45.979Z,5
2019-04-03T05:10:48.686Z,5
2019-04-03T05:11:48.323Z,5
2019-04-03T05:12:50.549Z,5
2019-04-03T05:13:48.999Z,5
2019-04-03T05:14:46.805Z,5
2019-04-03T05:15:45.656Z,5
2019-04-03T05:16:45.863Z,5
2019-04-03T05:17:45.368Z,5
2019-04-03T05:18:46.115Z,5
2019-04-03T05:19:46.773Z,5
2019-04-03T05:20:45.692Z,5
2019-04-03T05:21:45.695Z,5
2019-04-03T05:22:45.838Z,10
2019-04-03T05:23:45.453Z,10
2019-04-03T05:24:45.565Z,10
2019-04-03T05:25:45.547Z,15
2019-04-03T05:26:45.748Z,15
2019-04-03T05:27:45.392Z,20
2019-04-03T05:29:00.131Z,20
2019-04-03T05:29:45.408Z,25
2019-04-03T05:30:47.399Z,25
2019-04-03T05:31:47.963Z,25
2019-04-03T05:32:47.905Z,25
2019-04-03T05:33:48.845Z,25
2019-04-03T05:34:48.389Z,30
2019-04-03T05:35:48.884Z,30
2019-04-03T05:36:45.130Z,30
2019-04-03T05:37:45.132Z,30
2019-04-03T05:38:47.624Z,30
2019-04-03T05:39:45.250Z,30
2019-04-03T05:40:45.063Z,30
2019-04-03T05:41:44.986Z,30
2019-04-03T05:42:45.262Z,35
2019-04-03T05:43:45.071Z,35
2019-04-03T05:44:45.178Z,35
2019-04-03T05:45:48.034Z,35
2019-04-03T05:46:47.013Z,35
2019-04-03T05:47:48.458Z,40
2019-04-03T05:48:45.978Z,40
2019-04-03T05:49:46.631Z,40
2019-04-03T05:50:46.209Z,45
2019-04-03T05:51:44.897Z,45
2019-04-03T05:52:45.351Z,45
2019-04-03T05:53:46.916Z,45
2019-04-03T05:54:51.538Z,45
2019-04-03T05:55:47.645Z,45
2019-04-03T05:56:48.144Z,45
2019-04-03T05:57:47.769Z,40
2019-04-03T05:59:00.951Z,40
2019-04-03T05:59:58.499Z,40
2019-04-03T06:00:47.406Z,40
2019-04-03T06:01:49.159Z,45
2019-04-03T06:02:44.561Z,45
2019-04-03T06:03:53.474Z,50
2019-04-03T06:04:48.018Z,55
2019-04-03T06:05:46.912Z,55
2019-04-03T06:06:46.781Z,55
2019-04-03T06:07:44.692Z,60
2019-04-03T06:08:44.852Z,65
2019-04-03T06:09:44.534Z,70
2019-04-03T06:10:46.936Z,70
2019-04-03T06:11:47.631Z,70
2019-04-03T06:12:49.823Z,65
2019-04-03T06:13:47.329Z,55
2019-04-03T06:14:44.136Z,50
2019-04-03T06:15:44.406Z,45
2019-04-03T06:16:44.091Z,50
2019-04-03T06:17:44.089Z,50
2019-04-03T06:18:47.172Z,55
2019-04-03T06:19:46.948Z,60
2019-04-03T06:20:46.212Z,60
2019-04-03T06:21:46.099Z,70
2019-04-03T06:22:44.020Z,80
2019-04-03T06:23:44.114Z,90
2019-04-03T06:24:44.076Z,95
2019-04-03T06:25:44.209Z,95
2019-04-03T06:26:49.319Z,85
2019-04-03T06:27:48.713Z,80
2019-04-03T06:28:47.391Z,85
2019-04-03T06:29:44.016Z,95
2019-04-03T06:30:43.867Z,105
2019-04-03T06:31:43.695Z,110
2019-04-03T06:32:43.688Z,105
2019-04-03T06:33:46.049Z,100
2019-04-03T06:34:48.290Z,90
2019-04-03T06:35:47.204Z,90
2019-04-03T06:36:43.890Z,95
2019-04-03T06:37:44.017Z,100
2019-04-03T06:38:43.753Z,110
2019-04-03T06:39:43.818Z,120
2019-04-03T06:40:46.814Z,125
2019-04-03T06:41:46.146Z,120
2019-04-03T06:42:46.739Z,120
2019-04-03T06:43:43.839Z,115
2019-04-03T06:44:43.364Z,100
2019-04-03T06:45:46.242Z,85
2019-04-03T06:46:43.713Z,75
2019-04-03T06:47:43.531Z,70
2019-04-03T06:48:45.682Z,65
2019-04-03T06:49:45.610Z,65
2019-04-03T06:50:43.205Z,60
2019-04-03T06:51:43.435Z,55
2019-04-03T06:52:43.236Z,50
2019-04-03T06:53:43.128Z,45
2019-04-03T06:54:46.312Z,45
2019-04-03T06:55:45.481Z,45
2019-04-03T06:56:45.732Z,45
2019-04-03T06:57:46.244Z,50
2019-04-03T06:58:51.917Z,50
2019-04-03T06:59:43.161Z,55
2019-04-03T07:00:42.579Z,55
2019-04-03T07:01:42.862Z,60
2019-04-03T07:02:43.278Z,65
2019-04-03T07:03:44.055Z,65
2019-04-03T07:04:44.906Z,70
2019-04-03T07:05:45.807Z,80
2019-04-03T07:06:44.727Z,85
2019-04-03T07:07:45.053Z,90
2019-04-03T07:08:48.305Z,90
2019-04-03T07:09:46.078Z,90
2019-04-03T07:11:00.964Z,80
2019-04-03T07:11:45.774Z,80
2019-04-03T07:12:46.390Z,75
2019-04-03T07:13:44.316Z,80
2019-04-03T07:14:43.740Z,80
2019-04-03T07:15:43.191Z,80
2019-04-03T07:16:45.915Z,90
2019-04-03T07:17:42.504Z,95
2019-04-03T07:18:44.449Z,100
2019-04-03T07:19:44.849Z,100
2019-04-03T07:20:42.419Z,105
2019-04-03T07:21:42.554Z,110
2019-04-03T07:22:42.372Z,120
2019-04-03T07:23:42.373Z,120
2019-04-03T07:24:42.318Z,115
2019-04-03T07:25:43.757Z,105
2019-04-03T07:26:45.080Z,100
2019-04-03T07:27:47.088Z,90
2019-04-03T07:28:45.637Z,85
2019-04-03T07:29:42.234Z,80
2019-04-03T07:30:42.443Z,80
2019-04-03T07:31:42.142Z,80
2019-04-03T07:32:42.417Z,90
2019-04-03T07:33:42.202Z,95
2019-04-03T07:34:43.937Z,95
2019-04-03T07:35:44.557Z,105
2019-04-03T07:36:46.284Z,115
2019-04-03T07:37:42.113Z,135
2019-04-03T07:38:42.254Z,150
2019-04-03T07:39:42.073Z,170
2019-04-03T07:40:42.215Z,190
2019-04-03T07:41:46.327Z,215
2019-04-03T07:42:41.712Z,230
2019-04-03T07:43:41.926Z,230
2019-04-03T07:44:42.274Z,235
2019-04-03T07:45:43.900Z,235
2019-04-03T07:46:44.242Z,235
2019-04-03T07:47:44.139Z,240
2019-04-03T07:48:45.691Z,250
2019-04-03T07:49:44.033Z,250
2019-04-03T07:50:46.138Z,260
2019-04-03T07:51:43.230Z,280
2019-04-03T07:52:41.845Z,305
2019-04-03T07:53:41.956Z,315
2019-04-03T07:54:41.899Z,315
2019-04-03T07:55:43.617Z,315
2019-04-03T07:56:41.981Z,300
2019-04-03T07:57:43.913Z,285
2019-04-03T07:58:42.288Z,270
2019-04-03T07:59:43.194Z,250
2019-04-03T08:00:43.775Z,215
2019-04-03T08:01:44.029Z,205
2019-04-03T08:02:50.162Z,195
2019-04-03T08:03:41.593Z,195
2019-04-03T08:04:41.306Z,195
2019-04-03T08:05:41.574Z,195
2019-04-03T08:06:44.303Z,200
2019-04-03T08:07:41.197Z,205
2019-04-03T08:08:41.161Z,205
2019-04-03T08:09:41.190Z,200
2019-04-03T08:10:44.837Z,195
2019-04-03T08:11:44.477Z,190
2019-04-03T08:12:45.033Z,185
2019-04-03T08:13:45.696Z,190
2019-04-03T08:14:43.175Z,195
2019-04-03T08:15:42.689Z,205
2019-04-03T08:16:45.852Z,215
2019-04-03T08:17:40.945Z,220
2019-04-03T08:18:40.918Z,220
2019-04-03T08:19:40.655Z,220
2019-04-03T08:20:40.819Z,220
2019-04-03T08:21:41.483Z,225
2019-04-03T08:22:43.363Z,225
2019-04-03T08:23:43.908Z,235
2019-04-03T08:24:42.113Z,235
2019-04-03T08:25:42.805Z,240
2019-04-03T08:26:40.683Z,240
2019-04-03T08:27:40.743Z,235
2019-04-03T08:28:40.912Z,230
2019-04-03T08:29:45.556Z,230
2019-04-03T08:30:44.607Z,220
2019-04-03T08:31:43.602Z,220
2019-04-03T08:32:40.570Z,220
2019-04-03T08:33:42.998Z,230
2019-04-03T08:34:41.543Z,235
2019-04-03T08:35:44.232Z,245
2019-04-03T08:36:43.743Z,255
2019-04-03T08:37:45.936Z,275
2019-04-03T08:38:41.040Z,295
2019-04-03T08:39:40.427Z,310
2019-04-03T08:40:40.606Z,320
2019-04-03T08:41:43.621Z,335
2019-04-03T08:42:42.432Z,365
2019-04-03T08:43:42.477Z,405
2019-04-03T08:44:42.601Z,440
2019-04-03T08:45:42.761Z,470
2019-04-03T08:46:42.400Z,480
2019-04-03T08:47:44.481Z,500
2019-04-03T08:48:40.136Z,515
2019-04-03T08:49:40.107Z,515
2019-04-03T08:50:41.165Z,515
2019-04-03T08:51:43.471Z,505
2019-04-03T08:52:42.450Z,485
2019-04-03T08:53:43.748Z,455
2019-04-03T08:54:41.919Z,430
2019-04-03T08:55:40.073Z,415
2019-04-03T08:56:40.062Z,395
2019-04-03T08:57:40.128Z,385
2019-04-03T08:58:39.876Z,380
2019-04-03T08:59:40.187Z,365
2019-04-03T09:00:42.063Z,355
2019-04-03T09:01:43.116Z,355
2019-04-03T09:02:42.323Z,370
2019-04-03T09:03:40.033Z,400
2019-04-03T09:04:40.114Z,425
2019-04-03T09:05:40.017Z,445
2019-04-03T09:06:39.780Z,450
2019-04-03T09:07:39.661Z,450
2019-04-03T09:08:39.639Z,455
2019-04-03T09:09:42.142Z,475
2019-04-03T09:10:44.956Z,495
2019-04-03T09:11:42.984Z,525
2019-04-03T09:12:42.548Z,565
2019-04-03T09:13:39.897Z,595
2019-04-03T09:14:39.745Z,640
2019-04-03T09:15:39.760Z,680
2019-04-03T09:16:40.804Z,730
2019-04-03T09:17:41.481Z,770
2019-04-03T09:18:43.254Z,810
2019-04-03T09:19:41.642Z,830
2019-04-03T09:20:45.553Z,825
2019-04-03T09:21:39.901Z,825
2019-04-03T09:22:39.775Z,825
2019-04-03T09:23:39.284Z,815
2019-04-03T09:24:39.919Z,780
2019-04-03T09:25:41.579Z,775
2019-04-03T09:26:44.661Z,805
2019-04-03T09:27:42.298Z,850
2019-04-03T09:28:41.127Z,850
2019-04-03T09:29:39.131Z,850
2019-04-03T09:30:39.410Z,895
2019-04-03T09:31:39.458Z,910
2019-04-03T09:32:41.771Z,885
2019-04-03T09:33:39.759Z,880
2019-04-03T09:34:42.991Z,905
2019-04-03T09:35:45.157Z,900
2019-04-03T09:36:41.998Z,915
2019-04-03T09:37:41.898Z,920
2019-04-03T09:38:43.093Z,900
2019-04-03T09:39:38.914Z,865
2019-04-03T09:40:38.888Z,835
2019-04-03T09:41:38.956Z,845
2019-04-03T09:42:38.853Z,875
2019-04-03T09:43:42.095Z,875
2019-04-03T09:44:38.959Z,830
2019-04-03T09:45:39.261Z,795
2019-04-03T09:46:41.342Z,755
2019-04-03T09:47:42.320Z,710
2019-04-03T09:48:41.582Z,625
2019-04-03T09:49:43.981Z,525
2019-04-03T09:50:38.902Z,440
2019-04-03T09:51:38.648Z,385
2019-04-03T09:53:01.769Z,350
2019-04-03T09:53:39.090Z,345
2019-04-03T09:54:39.005Z,340
2019-04-03T09:55:45.546Z,350
2019-04-03T09:57:03.173Z,360
2019-04-03T09:57:41.056Z,380
2019-04-03T09:58:42.058Z,390
2019-04-03T09:59:40.806Z,415
2019-04-03T10:00:41.182Z,425
2019-04-03T10:01:38.668Z,435
2019-04-03T10:02:38.425Z,445
2019-04-03T10:03:40.878Z,465
2019-04-03T10:04:38.677Z,480
2019-04-03T10:05:39.438Z,495
2019-04-03T10:06:41.029Z,500
2019-04-03T10:07:43.996Z,515
2019-04-03T10:08:42.591Z,515
2019-04-03T10:09:42.784Z,510
2019-04-03T10:10:38.526Z,490
2019-04-03T10:11:41.617Z,465
2019-04-03T10:12:42.642Z,445
2019-04-03T10:13:38.581Z,420
2019-04-03T10:14:38.762Z,430
2019-04-03T10:15:40.710Z,450
2019-04-03T10:16:40.842Z,465
2019-04-03T10:17:40.535Z,465
2019-04-03T10:18:38.997Z,470
2019-04-03T10:19:38.387Z,480
2019-04-03T10:20:38.001Z,470
2019-04-03T10:21:41.161Z,450
2019-04-03T10:22:38.461Z,430
2019-04-03T10:23:38.902Z,405
2019-04-03T10:24:40.395Z,415
2019-04-03T10:25:41.355Z,430
2019-04-03T10:26:44.160Z,440
2019-04-03T10:27:38.129Z,460
2019-04-03T10:28:38.049Z,475
2019-04-03T10:29:37.988Z,500
2019-04-03T10:30:37.765Z,515
2019-04-03T10:31:37.732Z,535
2019-04-03T10:32:38.327Z,550
2019-04-03T10:33:40.260Z,575
2019-04-03T10:34:40.257Z,600
2019-04-03T10:35:39.836Z,635
2019-04-03T10:36:37.971Z,660
2019-04-03T10:37:38.025Z,670
2019-04-03T10:38:37.866Z,675
2019-04-03T10:39:40.975Z,695
2019-04-03T10:40:37.793Z,710
2019-04-03T10:41:38.548Z,705
2019-04-03T10:42:40.203Z,695
2019-04-03T10:43:39.929Z,685
2019-04-03T10:44:37.869Z,675
2019-04-03T10:45:37.412Z,670
2019-04-03T10:46:37.836Z,670
2019-04-03T10:47:51.915Z,695
2019-04-03T10:48:38.185Z,710
2019-04-03T10:49:40.724Z,740
2019-04-03T10:50:40.378Z,765
2019-04-03T10:51:43.855Z,810
2019-04-03T10:52:37.456Z,845
2019-04-03T10:53:37.539Z,850
2019-04-03T10:54:40.455Z,850
2019-04-03T10:55:39.078Z,860
2019-04-03T10:56:40.345Z,905
2019-04-03T10:57:40.741Z,960
2019-04-03T10:58:42.601Z,1030
2019-04-03T10:59:37.350Z,1095
2019-04-03T11:00:38.709Z,1210
2019-04-03T11:01:37.082Z,1215
2019-04-03T11:02:37.034Z,1190
2019-04-03T11:03:37.285Z,1140
2019-04-03T11:04:37.258Z,1130
2019-04-03T11:05:37.315Z,1135
2019-04-03T11:06:39.981Z,1080
2019-04-03T11:07:37.191Z,1015
2019-04-03T11:08:37.322Z,990
2019-04-03T11:09:37.240Z,990
2019-04-03T11:10:37.004Z,1020
2019-04-03T11:11:43.342Z,1015
2019-04-03T11:12:39.158Z,1015
2019-04-03T11:13:39.368Z,990
2019-04-03T11:14:38.980Z,940
2019-04-03T11:15:37.164Z,890
2019-04-03T11:16:38.559Z,850
2019-04-03T11:17:36.732Z,835
2019-04-03T11:18:37.234Z,820
2019-04-03T11:19:39.751Z,840
2019-04-03T11:20:40.954Z,845
2019-04-03T11:21:36.969Z,820
2019-04-03T11:23:05.241Z,785
2019-04-03T11:23:52.743Z,820
2019-04-03T11:24:38.617Z,875
2019-04-03T11:25:36.272Z,970
2019-04-03T11:26:37.235Z,1045
2019-04-03T11:27:53.287Z,1090
2019-04-03T11:28:39.529Z,1080
2019-04-03T11:29:36.697Z,1045
2019-04-03T11:30:36.672Z,1005
2019-04-03T11:31:47.468Z,970
2019-04-03T11:32:36.686Z,975
2019-04-03T11:33:36.781Z,1025
2019-04-03T11:34:36.439Z,1065
2019-04-03T11:35:36.503Z,1055
2019-04-03T11:36:39.962Z,1065
2019-04-03T11:37:39.819Z,1095
2019-04-03T11:38:38.574Z,1140
2019-04-03T11:39:37.486Z,1165
2019-04-03T11:40:36.295Z,1140
2019-04-03T11:41:36.654Z,1085
2019-04-03T11:42:40.354Z,1060
2019-04-03T11:43:38.678Z,1060
2019-04-03T11:44:36.194Z,1080
2019-04-03T11:45:36.475Z,1100
2019-04-03T11:46:36.478Z,1125
2019-04-03T11:47:36.237Z,1140
2019-04-03T11:48:37.088Z,1180
2019-04-03T11:49:36.509Z,1260
2019-04-03T11:50:38.800Z,1275
2019-04-03T11:51:41.267Z,1240
2019-04-03T11:52:37.773Z,1145
2019-04-03T11:53:39.372Z,1020
2019-04-03T11:54:36.943Z,965
2019-04-03T11:55:36.356Z,1015
2019-04-03T11:56:36.094Z,1140
2019-04-03T11:57:36.799Z,1080
2019-04-03T11:58:36.053Z,1055
2019-04-03T11:59:36.279Z,1020
2019-04-03T12:00:35.962Z,1035
2019-04-03T12:01:36.366Z,1145
2019-04-03T12:02:36.849Z,1215
2019-04-03T12:03:36.433Z,1200
2019-04-03T12:04:36.134Z,1115
2019-04-03T12:05:36.237Z,1055
2019-04-03T12:06:35.879Z,1070
2019-04-03T12:07:36.315Z,1085
2019-04-03T12:08:38.612Z,1105
2019-04-03T12:09:38.486Z,1120
2019-04-03T12:10:39.951Z,1165
2019-04-03T12:11:35.946Z,1155
2019-04-03T12:12:36.004Z,1130
2019-04-03T12:13:35.696Z,1235
2019-04-03T12:14:35.913Z,1220
2019-04-03T12:15:38.889Z,1165
2019-04-03T12:16:36.062Z,1145
2019-04-03T12:17:38.865Z,1100
2019-04-03T12:18:38.297Z,1175
2019-04-03T12:19:37.039Z,1290
2019-04-03T12:20:35.559Z,1235
2019-04-03T12:21:35.877Z,1095
2019-04-03T12:22:35.655Z,960
2019-04-03T12:23:39.168Z,880
2019-04-03T12:24:35.567Z,840
2019-04-03T12:25:42.566Z,745
2019-04-03T12:26:35.827Z,630
2019-04-03T12:27:38.388Z,505
2019-04-03T12:28:35.620Z,430
2019-04-03T12:29:35.878Z,415
2019-04-03T12:30:37.410Z,480
2019-04-03T12:31:35.774Z,590
2019-04-03T12:32:54.812Z,745
2019-04-03T12:33:35.658Z,785
2019-04-03T12:34:37.196Z,820
2019-04-03T12:35:35.401Z,830
2019-04-03T12:36:37.307Z,860
2019-04-03T12:37:36.038Z,845
2019-04-03T12:38:35.536Z,815
2019-04-03T12:39:36.807Z,755
2019-04-03T12:40:39.320Z,705
2019-04-03T12:41:42.822Z,670
2019-04-03T12:42:35.789Z,650
2019-04-03T12:43:35.531Z,640
2019-04-03T12:44:36.162Z,650
2019-04-03T12:45:37.260Z,690
2019-04-03T12:46:40.811Z,730
2019-04-03T12:47:37.423Z,755
2019-04-03T12:48:37.968Z,775
2019-04-03T12:49:35.102Z,815
2019-04-03T12:50:37.399Z,855
2019-04-03T12:51:38.691Z,900
2019-04-03T12:52:35.301Z,945
2019-04-03T12:53:35.614Z,990
2019-04-03T12:54:35.755Z,990
2019-04-03T12:55:36.242Z,940
2019-04-03T12:56:38.495Z,920
2019-04-03T12:57:41.556Z,905
2019-04-03T12:58:39.516Z,905
2019-04-03T12:59:36.149Z,885
2019-04-03T13:00:35.932Z,890
2019-04-03T13:01:35.208Z,880
2019-04-03T13:02:35.193Z,890
2019-04-03T13:03:39.371Z,865
2019-04-03T13:04:39.503Z,815
2019-04-03T13:05:37.335Z,770
2019-04-03T13:06:35.084Z,765
2019-04-03T13:07:37.896Z,810
2019-04-03T13:08:35.189Z,895
2019-04-03T13:09:37.276Z,880
2019-04-03T13:10:52.747Z,815
2019-04-03T13:11:37.877Z,785
2019-04-03T13:12:37.068Z,720
2019-04-03T13:13:40.744Z,630
2019-04-03T13:14:40.200Z,565
2019-04-03T13:15:37.049Z,525
2019-04-03T13:16:35.304Z,510
2019-04-03T13:17:34.896Z,530
2019-04-03T13:18:35.098Z,595
2019-04-03T13:19:35.487Z,640
2019-04-03T13:20:38.710Z,645
2019-04-03T13:21:34.451Z,625
2019-04-03T13:22:34.840Z,580
2019-04-03T13:23:35.902Z,540
2019-04-03T13:24:34.904Z,545
2019-04-03T13:25:35.243Z,570
2019-04-03T13:26:35.359Z,565
2019-04-03T13:27:38.686Z,550
2019-04-03T13:28:40.113Z,550
2019-04-03T13:29:34.421Z,570
2019-04-03T13:30:34.622Z,600
2019-04-03T13:31:34.602Z,650
2019-04-03T13:32:34.111Z,690
2019-04-03T13:33:37.652Z,725
2019-04-03T13:34:36.438Z,830
2019-04-03T13:35:34.580Z,860
2019-04-03T13:36:34.891Z,815
2019-04-03T13:37:35.364Z,835
2019-04-03T13:38:38.385Z,825
2019-04-03T13:39:37.520Z,735
2019-04-03T13:40:34.869Z,700
2019-04-03T13:41:36.621Z,700
2019-04-03T13:42:35.973Z,725
2019-04-03T13:43:34.060Z,770
2019-04-03T13:44:37.775Z,875
2019-04-03T13:45:36.885Z,945
2019-04-03T13:46:36.438Z,965
2019-04-03T13:47:34.854Z,920
2019-04-03T13:48:34.383Z,845
2019-04-03T13:49:37.161Z,760
2019-04-03T13:50:34.146Z,725
2019-04-03T13:51:36.563Z,700
2019-04-03T13:52:53.104Z,670
2019-04-03T13:53:35.361Z,640
2019-04-03T13:54:36.782Z,610
2019-04-03T13:55:42.623Z,610
2019-04-03T13:56:34.828Z,615
2019-04-03T13:57:34.315Z,605
2019-04-03T13:58:37.607Z,565
2019-04-03T13:59:35.465Z,525
2019-04-03T14:00:37.376Z,495
2019-04-03T14:01:37.807Z,465
2019-04-03T14:02:34.096Z,430
2019-04-03T14:03:35.670Z,410
2019-04-03T14:04:34.727Z,400
2019-04-03T14:05:42.539Z,390
2019-04-03T14:06:36.167Z,385
2019-04-03T14:07:39.825Z,375
2019-04-03T14:08:33.482Z,370
2019-04-03T14:09:33.831Z,365